sensor_id;sensor_type;location;lat;lon;timestamp;P1;durP1;ratioP1;P2;durP2;ratioP2
3995;SDS011;2012;49.794;9.722;2023-06-22T00:01:48;45.10;;;9.80;;
3995;SDS011;2012;49.794;9.722;2023-06-22T00:04:18;21.97;;;8.57;;
3995;SDS011;2012;49.794;9.722;2023-06-22T00:06:46;17.93;;;8.40;;
3995;SDS011;2012;49.794;9.722;2023-06-22T00:09:15;22.93;;;8.90;;
3995;SDS011;2012;49.794;9.722;2023-06-22T00:11:52;16.30;;;9.23;;
3995;SDS011;2012;49.794;9.722;2023-06-22T00:14:19;18.00;;;9.37;;
3995;SDS011;2012;49.794;9.722;2023-06-22T00:16:48;25.27;;;9.57;;
3995;SDS011;2012;49.794;9.722;2023-06-22T00:19:17;24.40;;;9.07;;
3995;SDS011;2012;49.794;9.722;2023-06-22T00:21:48;11.87;;;9.20;;
3995;SDS011;2012;49.794;9.722;2023-06-22T00:24:20;13.50;;;8.37;;
3995;SDS011;2012;49.794;9.722;2023-06-22T00:26:48;27.90;;;10.60;;
3995;SDS011;2012;49.794;9.722;2023-06-22T00:29:16;20.50;;;10.40;;
3995;SDS011;2012;49.794;9.722;2023-06-22T00:31:46;17.43;;;9.40;;
3995;SDS011;2012;49.794;9.722;2023-06-22T00:34:14;9.43;;;8.23;;
3995;SDS011;2012;49.794;9.722;2023-06-22T00:36:45;12.40;;;8.63;;
3995;SDS011;2012;49.794;9.722;2023-06-22T00:39:14;13.87;;;9.60;;
3995;SDS011;2012;49.794;9.722;2023-06-22T00:41:42;11.00;;;8.33;;
3995;SDS011;2012;49.794;9.722;2023-06-22T00:44:10;10.87;;;8.70;;
3995;SDS011;2012;49.794;9.722;2023-06-22T00:46:39;19.77;;;9.53;;
3995;SDS011;2012;49.794;9.722;2023-06-22T00:49:07;11.27;;;9.03;;
3995;SDS011;2012;49.794;9.722;2023-06-22T00:51:36;20.30;;;9.13;;
3995;SDS011;2012;49.794;9.722;2023-06-22T00:54:06;17.27;;;9.70;;
3995;SDS011;2012;49.794;9.722;2023-06-22T00:56:33;17.10;;;9.20;;
3995;SDS011;2012;49.794;9.722;2023-06-22T00:59:04;16.97;;;10.13;;
3995;SDS011;2012;49.794;9.722;2023-06-22T01:01:34;20.23;;;9.33;;
3995;SDS011;2012;49.794;9.722;2023-06-22T01:04:04;25.07;;;9.83;;
3995;SDS011;2012;49.794;9.722;2023-06-22T01:06:35;21.80;;;9.30;;
3995;SDS011;2012;49.794;9.722;2023-06-22T01:09:26;15.00;;;9.20;;
3995;SDS011;2012;49.794;9.722;2023-06-22T01:12:04;19.73;;;9.57;;
3995;SDS011;2012;49.794;9.722;2023-06-22T01:17:09;14.10;;;10.20;;
3995;SDS011;2012;49.794;9.722;2023-06-22T01:19:46;23.10;;;10.80;;
3995;SDS011;2012;49.794;9.722;2023-06-22T01:22:27;14.83;;;8.77;;
3995;SDS011;2012;49.794;9.722;2023-06-22T01:25:10;25.53;;;8.90;;
3995;SDS011;2012;49.794;9.722;2023-06-22T01:30:07;15.33;;;9.00;;
3995;SDS011;2012;49.794;9.722;2023-06-22T01:32:37;25.00;;;10.40;;
3995;SDS011;2012;49.794;9.722;2023-06-22T01:35:06;27.10;;;10.77;;
3995;SDS011;2012;49.794;9.722;2023-06-22T01:37:35;25.37;;;10.80;;
3995;SDS011;2012;49.794;9.722;2023-06-22T01:40:04;14.30;;;10.17;;
3995;SDS011;2012;49.794;9.722;2023-06-22T01:42:35;14.40;;;9.50;;
3995;SDS011;2012;49.794;9.722;2023-06-22T01:45:06;19.30;;;10.10;;
3995;SDS011;2012;49.794;9.722;2023-06-22T01:47:33;26.70;;;10.80;;
3995;SDS011;2012;49.794;9.722;2023-06-22T01:50:01;23.13;;;10.37;;
3995;SDS011;2012;49.794;9.722;2023-06-22T01:52:28;24.47;;;10.90;;
3995;SDS011;2012;49.794;9.722;2023-06-22T01:54:55;21.73;;;11.00;;
3995;SDS011;2012;49.794;9.722;2023-06-22T01:57:24;18.53;;;10.57;;
3995;SDS011;2012;49.794;9.722;2023-06-22T02:00:00;23.53;;;9.00;;
3995;SDS011;2012;49.794;9.722;2023-06-22T02:02:56;26.10;;;11.27;;
3995;SDS011;2012;49.794;9.722;2023-06-22T02:05:46;22.97;;;9.97;;
3995;SDS011;2012;49.794;9.722;2023-06-22T02:08:33;20.20;;;10.33;;
3995;SDS011;2012;49.794;9.722;2023-06-22T02:11:08;21.73;;;10.67;;
3995;SDS011;2012;49.794;9.722;2023-06-22T02:13:37;22.17;;;10.73;;
3995;SDS011;2012;49.794;9.722;2023-06-22T02:16:12;17.87;;;10.40;;
3995;SDS011;2012;49.794;9.722;2023-06-22T02:18:47;20.40;;;10.90;;
3995;SDS011;2012;49.794;9.722;2023-06-22T02:21:17;15.50;;;10.40;;
3995;SDS011;2012;49.794;9.722;2023-06-22T02:23:45;19.23;;;12.20;;
3995;SDS011;2012;49.794;9.722;2023-06-22T02:26:13;19.60;;;13.00;;
3995;SDS011;2012;49.794;9.722;2023-06-22T02:28:42;28.53;;;12.23;;
3995;SDS011;2012;49.794;9.722;2023-06-22T02:31:09;17.47;;;13.50;;
3995;SDS011;2012;49.794;9.722;2023-06-22T02:33:36;28.23;;;14.40;;
3995;SDS011;2012;49.794;9.722;2023-06-22T02:36:03;20.07;;;13.50;;
3995;SDS011;2012;49.794;9.722;2023-06-22T02:38:31;28.37;;;14.40;;
3995;SDS011;2012;49.794;9.722;2023-06-22T02:41:02;18.87;;;14.57;;
3995;SDS011;2012;49.794;9.722;2023-06-22T02:43:29;17.10;;;14.03;;
3995;SDS011;2012;49.794;9.722;2023-06-22T02:45:56;25.67;;;14.97;;
3995;SDS011;2012;49.794;9.722;2023-06-22T02:48:23;24.03;;;14.27;;
3995;SDS011;2012;49.794;9.722;2023-06-22T02:50:50;18.90;;;13.57;;
3995;SDS011;2012;49.794;9.722;2023-06-22T02:53:17;21.80;;;14.90;;
3995;SDS011;2012;49.794;9.722;2023-06-22T02:55:45;19.93;;;14.30;;
3995;SDS011;2012;49.794;9.722;2023-06-22T02:58:13;18.83;;;15.50;;
3995;SDS011;2012;49.794;9.722;2023-06-22T03:00:40;20.60;;;13.60;;
3995;SDS011;2012;49.794;9.722;2023-06-22T03:03:06;22.93;;;15.00;;
3995;SDS011;2012;49.794;9.722;2023-06-22T03:05:33;20.07;;;13.10;;
3995;SDS011;2012;49.794;9.722;2023-06-22T03:08:01;19.03;;;14.63;;
3995;SDS011;2012;49.794;9.722;2023-06-22T03:10:31;19.87;;;13.77;;
3995;SDS011;2012;49.794;9.722;2023-06-22T03:12:58;16.23;;;13.63;;
3995;SDS011;2012;49.794;9.722;2023-06-22T03:15:25;17.17;;;14.40;;
3995;SDS011;2012;49.794;9.722;2023-06-22T03:17:52;18.27;;;14.53;;
3995;SDS011;2012;49.794;9.722;2023-06-22T03:20:21;15.03;;;13.30;;
3995;SDS011;2012;49.794;9.722;2023-06-22T03:22:48;18.17;;;15.23;;
3995;SDS011;2012;49.794;9.722;2023-06-22T03:25:15;22.17;;;15.07;;
3995;SDS011;2012;49.794;9.722;2023-06-22T03:27:45;15.70;;;14.10;;
3995;SDS011;2012;49.794;9.722;2023-06-22T03:30:12;18.23;;;15.10;;
3995;SDS011;2012;49.794;9.722;2023-06-22T03:32:38;18.67;;;14.13;;
3995;SDS011;2012;49.794;9.722;2023-06-22T03:35:06;14.17;;;12.67;;
3995;SDS011;2012;49.794;9.722;2023-06-22T03:37:35;15.50;;;12.80;;
3995;SDS011;2012;49.794;9.722;2023-06-22T03:40:02;22.63;;;14.27;;
3995;SDS011;2012;49.794;9.722;2023-06-22T03:42:33;15.37;;;13.57;;
3995;SDS011;2012;49.794;9.722;2023-06-22T03:45:04;20.87;;;13.90;;
3995;SDS011;2012;49.794;9.722;2023-06-22T03:47:32;18.30;;;14.37;;
3995;SDS011;2012;49.794;9.722;2023-06-22T03:49:59;16.27;;;13.60;;
3995;SDS011;2012;49.794;9.722;2023-06-22T03:52:26;15.80;;;13.77;;
3995;SDS011;2012;49.794;9.722;2023-06-22T03:54:53;20.73;;;12.90;;
3995;SDS011;2012;49.794;9.722;2023-06-22T03:57:20;22.20;;;14.37;;
3995;SDS011;2012;49.794;9.722;2023-06-22T03:59:47;17.60;;;11.93;;
3995;SDS011;2012;49.794;9.722;2023-06-22T04:02:14;20.50;;;14.60;;
3995;SDS011;2012;49.794;9.722;2023-06-22T04:04:41;19.17;;;14.20;;
3995;SDS011;2012;49.794;9.722;2023-06-22T04:07:08;16.87;;;13.77;;
3995;SDS011;2012;49.794;9.722;2023-06-22T04:09:35;21.53;;;14.23;;
3995;SDS011;2012;49.794;9.722;2023-06-22T04:12:02;16.63;;;13.10;;
3995;SDS011;2012;49.794;9.722;2023-06-22T04:14:29;15.03;;;13.43;;
3995;SDS011;2012;49.794;9.722;2023-06-22T04:16:57;19.10;;;14.23;;
3995;SDS011;2012;49.794;9.722;2023-06-22T04:19:24;16.20;;;14.10;;
3995;SDS011;2012;49.794;9.722;2023-06-22T04:21:51;19.97;;;14.47;;
3995;SDS011;2012;49.794;9.722;2023-06-22T04:24:18;20.77;;;14.77;;
3995;SDS011;2012;49.794;9.722;2023-06-22T04:26:44;19.10;;;12.87;;
3995;SDS011;2012;49.794;9.722;2023-06-22T04:29:13;17.87;;;14.30;;
3995;SDS011;2012;49.794;9.722;2023-06-22T04:31:40;14.57;;;13.07;;
3995;SDS011;2012;49.794;9.722;2023-06-22T04:34:07;23.53;;;14.33;;
3995;SDS011;2012;49.794;9.722;2023-06-22T04:36:35;21.17;;;12.83;;
3995;SDS011;2012;49.794;9.722;2023-06-22T04:39:04;11.90;;;9.60;;
3995;SDS011;2012;49.794;9.722;2023-06-22T04:41:33;15.57;;;8.97;;
3995;SDS011;2012;49.794;9.722;2023-06-22T04:44:11;16.73;;;9.83;;
3995;SDS011;2012;49.794;9.722;2023-06-22T04:46:39;12.43;;;10.13;;
3995;SDS011;2012;49.794;9.722;2023-06-22T04:49:06;14.73;;;9.57;;
3995;SDS011;2012;49.794;9.722;2023-06-22T04:51:37;15.90;;;13.47;;
3995;SDS011;2012;49.794;9.722;2023-06-22T04:54:07;11.83;;;10.17;;
3995;SDS011;2012;49.794;9.722;2023-06-22T04:56:35;13.67;;;11.90;;
3995;SDS011;2012;49.794;9.722;2023-06-22T04:59:02;22.23;;;12.73;;
3995;SDS011;2012;49.794;9.722;2023-06-22T05:01:29;15.10;;;13.40;;
3995;SDS011;2012;49.794;9.722;2023-06-22T05:04:01;18.80;;;14.43;;
3995;SDS011;2012;49.794;9.722;2023-06-22T05:06:29;20.23;;;13.67;;
3995;SDS011;2012;49.794;9.722;2023-06-22T05:08:56;15.00;;;12.80;;
3995;SDS011;2012;49.794;9.722;2023-06-22T05:11:24;17.60;;;13.33;;
3995;SDS011;2012;49.794;9.722;2023-06-22T05:13:52;14.90;;;13.40;;
3995;SDS011;2012;49.794;9.722;2023-06-22T05:16:20;15.27;;;13.67;;
3995;SDS011;2012;49.794;9.722;2023-06-22T05:18:54;18.97;;;14.70;;
3995;SDS011;2012;49.794;9.722;2023-06-22T05:21:22;18.20;;;14.40;;
3995;SDS011;2012;49.794;9.722;2023-06-22T05:23:50;19.17;;;14.30;;
3995;SDS011;2012;49.794;9.722;2023-06-22T05:26:18;23.33;;;12.57;;
3995;SDS011;2012;49.794;9.722;2023-06-22T05:28:47;23.53;;;13.40;;
3995;SDS011;2012;49.794;9.722;2023-06-22T05:31:14;16.77;;;12.50;;
3995;SDS011;2012;49.794;9.722;2023-06-22T05:33:42;14.93;;;13.10;;
3995;SDS011;2012;49.794;9.722;2023-06-22T05:36:10;20.97;;;13.70;;
3995;SDS011;2012;49.794;9.722;2023-06-22T05:38:37;19.67;;;14.50;;
3995;SDS011;2012;49.794;9.722;2023-06-22T05:41:04;16.10;;;13.57;;
3995;SDS011;2012;49.794;9.722;2023-06-22T05:43:32;15.57;;;13.83;;
3995;SDS011;2012;49.794;9.722;2023-06-22T05:46:02;22.70;;;14.27;;
3995;SDS011;2012;49.794;9.722;2023-06-22T05:48:29;23.13;;;15.40;;
3995;SDS011;2012;49.794;9.722;2023-06-22T05:50:57;16.30;;;14.00;;
3995;SDS011;2012;49.794;9.722;2023-06-22T05:53:24;13.60;;;12.27;;
3995;SDS011;2012;49.794;9.722;2023-06-22T05:55:50;18.47;;;14.10;;
3995;SDS011;2012;49.794;9.722;2023-06-22T05:58:18;17.63;;;15.57;;
3995;SDS011;2012;49.794;9.722;2023-06-22T06:00:44;18.00;;;13.53;;
3995;SDS011;2012;49.794;9.722;2023-06-22T06:03:12;22.00;;;15.57;;
3995;SDS011;2012;49.794;9.722;2023-06-22T06:05:43;18.00;;;16.03;;
3995;SDS011;2012;49.794;9.722;2023-06-22T06:08:11;21.30;;;12.50;;
3995;SDS011;2012;49.794;9.722;2023-06-22T06:10:38;20.63;;;13.30;;
3995;SDS011;2012;49.794;9.722;2023-06-22T06:13:05;25.73;;;14.30;;
3995;SDS011;2012;49.794;9.722;2023-06-22T06:15:33;25.83;;;14.03;;
3995;SDS011;2012;49.794;9.722;2023-06-22T06:18:01;18.90;;;14.30;;
3995;SDS011;2012;49.794;9.722;2023-06-22T06:20:31;20.13;;;12.67;;
3995;SDS011;2012;49.794;9.722;2023-06-22T06:22:59;23.80;;;14.07;;
3995;SDS011;2012;49.794;9.722;2023-06-22T06:25:26;16.00;;;12.43;;
3995;SDS011;2012;49.794;9.722;2023-06-22T06:27:53;18.20;;;12.97;;
3995;SDS011;2012;49.794;9.722;2023-06-22T06:30:21;15.50;;;13.53;;
3995;SDS011;2012;49.794;9.722;2023-06-22T06:32:49;21.10;;;13.60;;
3995;SDS011;2012;49.794;9.722;2023-06-22T06:35:16;13.37;;;11.70;;
3995;SDS011;2012;49.794;9.722;2023-06-22T06:37:44;18.60;;;12.07;;
3995;SDS011;2012;49.794;9.722;2023-06-22T06:40:12;12.97;;;11.57;;
3995;SDS011;2012;49.794;9.722;2023-06-22T06:42:41;14.10;;;12.37;;
3995;SDS011;2012;49.794;9.722;2023-06-22T06:45:12;20.33;;;14.00;;
3995;SDS011;2012;49.794;9.722;2023-06-22T06:47:41;14.53;;;12.70;;
3995;SDS011;2012;49.794;9.722;2023-06-22T06:50:08;19.50;;;13.80;;
3995;SDS011;2012;49.794;9.722;2023-06-22T06:52:36;14.13;;;12.73;;
3995;SDS011;2012;49.794;9.722;2023-06-22T06:55:04;16.73;;;12.73;;
3995;SDS011;2012;49.794;9.722;2023-06-22T06:57:35;15.07;;;13.47;;
3995;SDS011;2012;49.794;9.722;2023-06-22T07:00:04;12.50;;;10.67;;
3995;SDS011;2012;49.794;9.722;2023-06-22T07:02:42;24.97;;;14.53;;
3995;SDS011;2012;49.794;9.722;2023-06-22T07:05:10;18.50;;;13.30;;
3995;SDS011;2012;49.794;9.722;2023-06-22T07:07:38;18.07;;;13.60;;
3995;SDS011;2012;49.794;9.722;2023-06-22T07:10:05;25.93;;;13.03;;
3995;SDS011;2012;49.794;9.722;2023-06-22T07:12:32;23.70;;;13.00;;
3995;SDS011;2012;49.794;9.722;2023-06-22T07:15:03;20.63;;;13.37;;
3995;SDS011;2012;49.794;9.722;2023-06-22T07:17:32;14.10;;;12.63;;
3995;SDS011;2012;49.794;9.722;2023-06-22T07:19:59;17.53;;;12.43;;
3995;SDS011;2012;49.794;9.722;2023-06-22T07:22:26;14.43;;;12.93;;
3995;SDS011;2012;49.794;9.722;2023-06-22T07:24:52;17.63;;;12.67;;
3995;SDS011;2012;49.794;9.722;2023-06-22T07:27:19;17.80;;;12.90;;
3995;SDS011;2012;49.794;9.722;2023-06-22T07:29:47;16.63;;;13.90;;
3995;SDS011;2012;49.794;9.722;2023-06-22T07:32:14;13.67;;;12.20;;
3995;SDS011;2012;49.794;9.722;2023-06-22T07:34:40;14.47;;;12.97;;
3995;SDS011;2012;49.794;9.722;2023-06-22T07:37:07;17.93;;;14.17;;
3995;SDS011;2012;49.794;9.722;2023-06-22T07:39:34;20.23;;;13.07;;
3995;SDS011;2012;49.794;9.722;2023-06-22T07:42:01;18.60;;;12.87;;
3995;SDS011;2012;49.794;9.722;2023-06-22T07:44:28;17.60;;;12.30;;
3995;SDS011;2012;49.794;9.722;2023-06-22T07:46:55;19.33;;;12.90;;
3995;SDS011;2012;49.794;9.722;2023-06-22T07:49:22;14.40;;;11.97;;
3995;SDS011;2012;49.794;9.722;2023-06-22T07:51:48;21.03;;;12.50;;
3995;SDS011;2012;49.794;9.722;2023-06-22T07:54:15;12.67;;;11.37;;
3995;SDS011;2012;49.794;9.722;2023-06-22T07:56:43;16.40;;;11.87;;
3995;SDS011;2012;49.794;9.722;2023-06-22T07:59:10;23.13;;;12.80;;
3995;SDS011;2012;49.794;9.722;2023-06-22T08:01:37;17.70;;;12.30;;
3995;SDS011;2012;49.794;9.722;2023-06-22T08:04:03;13.70;;;11.30;;
3995;SDS011;2012;49.794;9.722;2023-06-22T08:06:32;14.17;;;10.97;;
3995;SDS011;2012;49.794;9.722;2023-06-22T08:08:59;16.40;;;11.03;;
3995;SDS011;2012;49.794;9.722;2023-06-22T08:11:26;14.07;;;11.17;;
3995;SDS011;2012;49.794;9.722;2023-06-22T08:13:53;14.73;;;10.07;;
3995;SDS011;2012;49.794;9.722;2023-06-22T08:16:21;13.07;;;10.50;;
3995;SDS011;2012;49.794;9.722;2023-06-22T08:18:49;13.03;;;10.40;;
3995;SDS011;2012;49.794;9.722;2023-06-22T08:21:16;12.63;;;9.17;;
3995;SDS011;2012;49.794;9.722;2023-06-22T08:23:43;12.33;;;10.23;;
3995;SDS011;2012;49.794;9.722;2023-06-22T08:26:10;11.27;;;9.17;;
3995;SDS011;2012;49.794;9.722;2023-06-22T08:28:36;13.97;;;9.97;;
3995;SDS011;2012;49.794;9.722;2023-06-22T08:31:03;12.07;;;10.20;;
3995;SDS011;2012;49.794;9.722;2023-06-22T08:33:30;11.43;;;9.83;;
3995;SDS011;2012;49.794;9.722;2023-06-22T08:35:58;12.77;;;10.27;;
3995;SDS011;2012;49.794;9.722;2023-06-22T08:38:25;16.03;;;10.50;;
3995;SDS011;2012;49.794;9.722;2023-06-22T08:40:52;11.50;;;9.00;;
3995;SDS011;2012;49.794;9.722;2023-06-22T08:43:19;13.10;;;10.03;;
3995;SDS011;2012;49.794;9.722;2023-06-22T08:45:47;11.17;;;9.10;;
3995;SDS011;2012;49.794;9.722;2023-06-22T08:48:14;13.23;;;9.80;;
3995;SDS011;2012;49.794;9.722;2023-06-22T08:50:40;13.80;;;9.53;;
3995;SDS011;2012;49.794;9.722;2023-06-22T08:53:07;10.47;;;9.37;;
3995;SDS011;2012;49.794;9.722;2023-06-22T08:55:34;14.93;;;9.63;;
3995;SDS011;2012;49.794;9.722;2023-06-22T08:58:01;10.40;;;9.23;;
3995;SDS011;2012;49.794;9.722;2023-06-22T09:00:28;14.67;;;9.70;;
3995;SDS011;2012;49.794;9.722;2023-06-22T09:02:58;18.73;;;8.60;;
3995;SDS011;2012;49.794;9.722;2023-06-22T09:05:26;17.70;;;9.67;;
3995;SDS011;2012;49.794;9.722;2023-06-22T09:07:53;13.00;;;8.67;;
3995;SDS011;2012;49.794;9.722;2023-06-22T09:10:25;11.83;;;8.80;;
3995;SDS011;2012;49.794;9.722;2023-06-22T09:12:53;13.37;;;8.80;;
3995;SDS011;2012;49.794;9.722;2023-06-22T09:15:19;14.33;;;9.07;;
3995;SDS011;2012;49.794;9.722;2023-06-22T09:17:47;11.07;;;8.40;;
3995;SDS011;2012;49.794;9.722;2023-06-22T09:20:14;13.63;;;9.17;;
3995;SDS011;2012;49.794;9.722;2023-06-22T09:22:41;14.40;;;9.20;;
3995;SDS011;2012;49.794;9.722;2023-06-22T09:25:08;11.83;;;8.00;;
3995;SDS011;2012;49.794;9.722;2023-06-22T09:27:35;14.70;;;8.70;;
3995;SDS011;2012;49.794;9.722;2023-06-22T09:30:03;10.43;;;7.40;;
3995;SDS011;2012;49.794;9.722;2023-06-22T09:32:31;16.27;;;8.87;;
3995;SDS011;2012;49.794;9.722;2023-06-22T09:34:58;12.00;;;9.30;;
3995;SDS011;2012;49.794;9.722;2023-06-22T09:37:24;11.00;;;8.60;;
3995;SDS011;2012;49.794;9.722;2023-06-22T09:39:51;12.43;;;7.97;;
3995;SDS011;2012;49.794;9.722;2023-06-22T09:42:18;12.93;;;8.50;;
3995;SDS011;2012;49.794;9.722;2023-06-22T09:44:45;8.30;;;7.37;;
3995;SDS011;2012;49.794;9.722;2023-06-22T09:47:12;9.50;;;7.50;;
3995;SDS011;2012;49.794;9.722;2023-06-22T09:49:38;13.40;;;8.20;;
3995;SDS011;2012;49.794;9.722;2023-06-22T09:52:13;8.20;;;7.40;;
3995;SDS011;2012;49.794;9.722;2023-06-22T09:54:40;10.30;;;6.17;;
3995;SDS011;2012;49.794;9.722;2023-06-22T09:57:07;10.50;;;7.20;;
3995;SDS011;2012;49.794;9.722;2023-06-22T09:59:33;12.17;;;6.93;;
3995;SDS011;2012;49.794;9.722;2023-06-22T10:02:00;10.80;;;6.30;;
3995;SDS011;2012;49.794;9.722;2023-06-22T10:04:27;7.37;;;5.67;;
3995;SDS011;2012;49.794;9.722;2023-06-22T10:06:55;11.83;;;6.50;;
3995;SDS011;2012;49.794;9.722;2023-06-22T10:09:22;13.73;;;6.40;;
3995;SDS011;2012;49.794;9.722;2023-06-22T10:11:49;8.80;;;6.70;;
3995;SDS011;2012;49.794;9.722;2023-06-22T10:14:15;9.07;;;5.87;;
3995;SDS011;2012;49.794;9.722;2023-06-22T10:16:43;7.13;;;6.37;;
3995;SDS011;2012;49.794;9.722;2023-06-22T10:19:10;8.13;;;6.20;;
3995;SDS011;2012;49.794;9.722;2023-06-22T10:21:36;7.90;;;5.93;;
3995;SDS011;2012;49.794;9.722;2023-06-22T10:24:03;6.80;;;5.60;;
3995;SDS011;2012;49.794;9.722;2023-06-22T10:26:33;8.73;;;5.50;;
3995;SDS011;2012;49.794;9.722;2023-06-22T10:29:00;7.83;;;6.00;;
3995;SDS011;2012;49.794;9.722;2023-06-22T10:31:42;9.03;;;6.17;;
3995;SDS011;2012;49.794;9.722;2023-06-22T10:34:09;7.80;;;5.83;;
3995;SDS011;2012;49.794;9.722;2023-06-22T10:36:36;9.20;;;6.30;;
3995;SDS011;2012;49.794;9.722;2023-06-22T10:39:03;8.17;;;5.40;;
3995;SDS011;2012;49.794;9.722;2023-06-22T10:41:30;7.00;;;5.13;;
3995;SDS011;2012;49.794;9.722;2023-06-22T10:43:57;7.83;;;5.40;;
3995;SDS011;2012;49.794;9.722;2023-06-22T10:46:24;10.97;;;4.80;;
3995;SDS011;2012;49.794;9.722;2023-06-22T10:48:52;12.63;;;5.80;;
3995;SDS011;2012;49.794;9.722;2023-06-22T10:51:21;13.10;;;4.87;;
3995;SDS011;2012;49.794;9.722;2023-06-22T10:53:48;11.70;;;5.67;;
3995;SDS011;2012;49.794;9.722;2023-06-22T10:56:15;8.60;;;5.90;;
3995;SDS011;2012;49.794;9.722;2023-06-22T10:58:42;10.13;;;5.50;;
3995;SDS011;2012;49.794;9.722;2023-06-22T11:01:11;6.37;;;4.67;;
3995;SDS011;2012;49.794;9.722;2023-06-22T11:03:57;6.60;;;4.87;;
3995;SDS011;2012;49.794;9.722;2023-06-22T11:06:25;8.33;;;5.03;;
3995;SDS011;2012;49.794;9.722;2023-06-22T11:08:52;11.87;;;5.80;;
3995;SDS011;2012;49.794;9.722;2023-06-22T11:11:32;11.70;;;5.60;;
3995;SDS011;2012;49.794;9.722;2023-06-22T11:13:59;8.37;;;5.27;;
3995;SDS011;2012;49.794;9.722;2023-06-22T11:16:26;7.27;;;5.30;;
3995;SDS011;2012;49.794;9.722;2023-06-22T11:18:53;9.00;;;5.40;;
3995;SDS011;2012;49.794;9.722;2023-06-22T11:21:20;8.40;;;4.83;;
3995;SDS011;2012;49.794;9.722;2023-06-22T11:23:47;13.80;;;4.53;;
3995;SDS011;2012;49.794;9.722;2023-06-22T11:26:15;7.50;;;4.50;;
3995;SDS011;2012;49.794;9.722;2023-06-22T11:28:42;11.10;;;4.47;;
3995;SDS011;2012;49.794;9.722;2023-06-22T11:31:09;7.30;;;4.63;;
3995;SDS011;2012;49.794;9.722;2023-06-22T11:33:51;11.00;;;4.90;;
3995;SDS011;2012;49.794;9.722;2023-06-22T11:36:18;6.83;;;4.83;;
3995;SDS011;2012;49.794;9.722;2023-06-22T11:38:46;8.10;;;5.13;;
3995;SDS011;2012;49.794;9.722;2023-06-22T11:41:13;10.63;;;4.70;;
3995;SDS011;2012;49.794;9.722;2023-06-22T11:43:40;10.20;;;5.30;;
3995;SDS011;2012;49.794;9.722;2023-06-22T11:46:07;9.93;;;4.63;;
3995;SDS011;2012;49.794;9.722;2023-06-22T11:48:34;12.47;;;4.80;;
3995;SDS011;2012;49.794;9.722;2023-06-22T11:51:01;10.37;;;5.23;;
3995;SDS011;2012;49.794;9.722;2023-06-22T11:53:29;6.13;;;5.07;;
3995;SDS011;2012;49.794;9.722;2023-06-22T11:55:56;7.83;;;4.33;;
3995;SDS011;2012;49.794;9.722;2023-06-22T11:58:23;11.60;;;4.83;;
3995;SDS011;2012;49.794;9.722;2023-06-22T12:00:49;11.37;;;4.47;;
3995;SDS011;2012;49.794;9.722;2023-06-22T12:03:19;6.33;;;4.20;;
3995;SDS011;2012;49.794;9.722;2023-06-22T12:05:49;7.03;;;4.27;;
3995;SDS011;2012;49.794;9.722;2023-06-22T12:08:17;9.20;;;4.50;;
3995;SDS011;2012;49.794;9.722;2023-06-22T12:10:44;9.83;;;4.60;;
3995;SDS011;2012;49.794;9.722;2023-06-22T12:13:11;17.00;;;5.20;;
3995;SDS011;2012;49.794;9.722;2023-06-22T12:15:39;8.20;;;4.90;;
3995;SDS011;2012;49.794;9.722;2023-06-22T12:18:05;9.53;;;5.00;;
3995;SDS011;2012;49.794;9.722;2023-06-22T12:20:32;6.03;;;4.77;;
3995;SDS011;2012;49.794;9.722;2023-06-22T12:22:59;10.73;;;4.60;;
3995;SDS011;2012;49.794;9.722;2023-06-22T12:25:28;7.67;;;4.67;;
3995;SDS011;2012;49.794;9.722;2023-06-22T12:27:55;12.00;;;4.40;;
3995;SDS011;2012;49.794;9.722;2023-06-22T12:30:21;9.77;;;5.03;;
3995;SDS011;2012;49.794;9.722;2023-06-22T12:32:49;7.20;;;4.10;;
3995;SDS011;2012;49.794;9.722;2023-06-22T12:35:18;8.50;;;4.43;;
3995;SDS011;2012;49.794;9.722;2023-06-22T12:37:45;10.17;;;4.70;;
3995;SDS011;2012;49.794;9.722;2023-06-22T12:40:12;8.70;;;4.80;;
3995;SDS011;2012;49.794;9.722;2023-06-22T12:42:39;12.63;;;5.47;;
3995;SDS011;2012;49.794;9.722;2023-06-22T12:45:07;8.83;;;4.90;;
3995;SDS011;2012;49.794;9.722;2023-06-22T12:47:34;9.07;;;4.33;;
3995;SDS011;2012;49.794;9.722;2023-06-22T12:50:01;11.10;;;4.87;;
3995;SDS011;2012;49.794;9.722;2023-06-22T12:52:29;8.37;;;4.67;;
3995;SDS011;2012;49.794;9.722;2023-06-22T12:54:57;13.03;;;4.50;;
3995;SDS011;2012;49.794;9.722;2023-06-22T12:57:24;16.57;;;4.80;;
3995;SDS011;2012;49.794;9.722;2023-06-22T12:59:51;11.77;;;4.90;;
3995;SDS011;2012;49.794;9.722;2023-06-22T13:02:18;7.53;;;4.93;;
3995;SDS011;2012;49.794;9.722;2023-06-22T13:04:45;17.00;;;4.50;;
3995;SDS011;2012;49.794;9.722;2023-06-22T13:07:12;9.83;;;4.40;;
3995;SDS011;2012;49.794;9.722;2023-06-22T13:09:49;11.17;;;5.13;;
3995;SDS011;2012;49.794;9.722;2023-06-22T13:12:20;11.37;;;4.80;;
3995;SDS011;2012;49.794;9.722;2023-06-22T13:14:48;10.83;;;5.03;;
3995;SDS011;2012;49.794;9.722;2023-06-22T13:17:15;18.37;;;4.47;;
3995;SDS011;2012;49.794;9.722;2023-06-22T13:19:42;11.53;;;4.60;;
3995;SDS011;2012;49.794;9.722;2023-06-22T13:22:25;14.93;;;5.50;;
3995;SDS011;2012;49.794;9.722;2023-06-22T13:25:00;6.77;;;4.70;;
3995;SDS011;2012;49.794;9.722;2023-06-22T13:27:28;17.13;;;5.30;;
3995;SDS011;2012;49.794;9.722;2023-06-22T13:29:55;11.77;;;4.90;;
3995;SDS011;2012;49.794;9.722;2023-06-22T13:32:22;12.77;;;5.30;;
3995;SDS011;2012;49.794;9.722;2023-06-22T13:34:49;13.43;;;5.37;;
3995;SDS011;2012;49.794;9.722;2023-06-22T13:37:18;10.67;;;4.97;;
3995;SDS011;2012;49.794;9.722;2023-06-22T13:39:45;11.17;;;4.80;;
3995;SDS011;2012;49.794;9.722;2023-06-22T13:42:12;5.67;;;4.33;;
3995;SDS011;2012;49.794;9.722;2023-06-22T13:44:39;10.70;;;5.57;;
3995;SDS011;2012;49.794;9.722;2023-06-22T13:47:06;15.03;;;4.83;;
3995;SDS011;2012;49.794;9.722;2023-06-22T13:49:35;11.10;;;5.17;;
3995;SDS011;2012;49.794;9.722;2023-06-22T13:52:02;10.80;;;5.30;;
3995;SDS011;2012;49.794;9.722;2023-06-22T13:54:30;12.10;;;5.23;;
3995;SDS011;2012;49.794;9.722;2023-06-22T13:57:00;10.73;;;5.10;;
3995;SDS011;2012;49.794;9.722;2023-06-22T13:59:26;8.93;;;4.90;;
3995;SDS011;2012;49.794;9.722;2023-06-22T14:01:54;13.17;;;5.30;;
3995;SDS011;2012;49.794;9.722;2023-06-22T14:04:22;11.83;;;5.43;;
3995;SDS011;2012;49.794;9.722;2023-06-22T14:06:50;12.77;;;4.90;;
3995;SDS011;2012;49.794;9.722;2023-06-22T14:09:18;14.20;;;6.00;;
3995;SDS011;2012;49.794;9.722;2023-06-22T14:11:44;11.93;;;5.20;;
3995;SDS011;2012;49.794;9.722;2023-06-22T14:14:11;13.40;;;5.33;;
3995;SDS011;2012;49.794;9.722;2023-06-22T14:16:39;13.57;;;5.27;;
3995;SDS011;2012;49.794;9.722;2023-06-22T14:19:05;8.40;;;4.80;;
3995;SDS011;2012;49.794;9.722;2023-06-22T14:21:32;9.83;;;5.13;;
3995;SDS011;2012;49.794;9.722;2023-06-22T14:23:59;12.60;;;5.60;;
3995;SDS011;2012;49.794;9.722;2023-06-22T14:26:26;9.43;;;5.20;;
3995;SDS011;2012;49.794;9.722;2023-06-22T14:28:53;10.43;;;5.50;;
3995;SDS011;2012;49.794;9.722;2023-06-22T14:31:20;11.87;;;5.53;;
3995;SDS011;2012;49.794;9.722;2023-06-22T14:33:47;10.73;;;4.90;;
3995;SDS011;2012;49.794;9.722;2023-06-22T14:36:15;15.10;;;5.63;;
3995;SDS011;2012;49.794;9.722;2023-06-22T14:38:45;13.93;;;5.60;;
3995;SDS011;2012;49.794;9.722;2023-06-22T14:41:13;16.63;;;5.60;;
3995;SDS011;2012;49.794;9.722;2023-06-22T14:43:49;18.80;;;5.10;;
3995;SDS011;2012;49.794;9.722;2023-06-22T14:46:19;15.37;;;5.20;;
3995;SDS011;2012;49.794;9.722;2023-06-22T14:48:46;15.00;;;5.20;;
3995;SDS011;2012;49.794;9.722;2023-06-22T14:51:13;12.60;;;5.53;;
3995;SDS011;2012;49.794;9.722;2023-06-22T14:53:43;11.67;;;5.43;;
3995;SDS011;2012;49.794;9.722;2023-06-22T14:56:11;8.97;;;5.00;;
3995;SDS011;2012;49.794;9.722;2023-06-22T14:58:40;8.17;;;4.73;;
3995;SDS011;2012;49.794;9.722;2023-06-22T15:01:11;12.30;;;5.27;;
3995;SDS011;2012;49.794;9.722;2023-06-22T15:03:38;16.93;;;5.90;;
3995;SDS011;2012;49.794;9.722;2023-06-22T15:06:05;15.60;;;4.77;;
3995;SDS011;2012;49.794;9.722;2023-06-22T15:08:33;8.27;;;4.97;;
3995;SDS011;2012;49.794;9.722;2023-06-22T15:11:00;14.33;;;5.40;;